createdAt,value
2023-02-22T00:01:35.554Z,9.84
2023-02-22T00:04:10.376Z,9.82
2023-02-22T00:06:42.672Z,9.76
2023-02-22T00:09:20.591Z,9.71
2023-02-22T00:11:53.021Z,9.64
2023-02-22T00:14:27.623Z,9.59
2023-02-22T00:17:00.092Z,9.55
2023-02-22T00:19:32.670Z,9.51
2023-02-22T00:22:05.202Z,9.48
2023-02-22T00:24:37.628Z,9.48
2023-02-22T00:27:11.160Z,9.42
2023-02-22T00:29:47.644Z,9.40
2023-02-22T00:32:20.253Z,9.35
2023-02-22T00:34:55.778Z,9.35
2023-02-22T00:37:31.736Z,9.34
2023-02-22T00:40:08.561Z,9.32
2023-02-22T00:42:40.817Z,9.28
2023-02-22T00:45:13.895Z,9.24
2023-02-22T00:47:46.277Z,9.20
2023-02-22T00:50:19.161Z,9.19
2023-02-22T00:52:51.717Z,9.17
2023-02-22T00:55:26.675Z,9.17
2023-02-22T00:57:59.830Z,9.17
2023-02-22T01:00:36.543Z,9.15
2023-02-22T01:03:10.749Z,9.14
2023-02-22T01:05:43.953Z,9.12
2023-02-22T01:08:20.264Z,9.12
2023-02-22T01:10:53.509Z,9.11
2023-02-22T01:13:26.075Z,9.10
2023-02-22T01:15:58.478Z,9.08
2023-02-22T01:18:31.287Z,9.05
2023-02-22T01:21:04.042Z,9.00
2023-02-22T01:23:36.562Z,8.97
2023-02-22T01:26:08.958Z,8.94
2023-02-22T01:28:41.831Z,8.91
2023-02-22T01:31:15.278Z,8.89
2023-02-22T01:33:47.853Z,8.86
2023-02-22T01:36:20.468Z,8.85
2023-02-22T01:38:53.367Z,8.78
2023-02-22T01:41:25.686Z,8.72
2023-02-22T01:43:57.987Z,8.63
2023-02-22T01:46:31.743Z,8.57
2023-02-22T01:49:07.416Z,8.52
2023-02-22T01:51:44.205Z,8.50
2023-02-22T01:54:19.714Z,8.44
2023-02-22T01:57:01.322Z,8.40
2023-02-22T01:59:37.548Z,8.37
2023-02-22T02:02:10.133Z,8.34
2023-02-22T02:04:43.982Z,8.32
2023-02-22T02:07:21.243Z,8.32
2023-02-22T02:09:58.953Z,8.34
2023-02-22T02:12:35.936Z,8.34
2023-02-22T02:15:25.385Z,8.34
2023-02-22T02:18:02.533Z,8.27
2023-02-22T02:20:43.690Z,8.27
2023-02-22T02:23:41.121Z,8.29
2023-02-22T02:26:31.494Z,8.31
2023-02-22T02:29:36.755Z,8.28
2023-02-22T02:32:45.696Z,8.35
2023-02-22T02:35:27.008Z,8.38
2023-02-22T02:38:05.460Z,8.39
2023-02-22T02:40:45.139Z,8.37
2023-02-22T02:43:25.067Z,8.35
2023-02-22T02:46:03.053Z,8.36
2023-02-22T02:48:38.840Z,8.37
2023-02-22T02:51:15.782Z,8.37
2023-02-22T02:53:51.855Z,8.37
2023-02-22T02:56:24.677Z,8.36
2023-02-22T02:58:57.311Z,8.36
2023-02-22T03:01:45.282Z,8.38
2023-02-22T03:04:29.663Z,8.38
2023-02-22T03:07:23.777Z,8.39
2023-02-22T03:10:13.289Z,8.40
2023-02-22T03:12:58.555Z,8.40
2023-02-22T03:15:44.843Z,8.39
2023-02-22T03:18:23.082Z,8.36
2023-02-22T03:21:01.432Z,8.32
2023-02-22T03:23:39.372Z,8.26
2023-02-22T03:26:16.127Z,8.24
2023-02-22T03:28:50.814Z,8.24
2023-02-22T03:31:30.806Z,8.22
2023-02-22T03:34:07.902Z,8.19
2023-02-22T03:36:45.678Z,8.19
2023-02-22T03:39:20.931Z,8.20
2023-02-22T03:41:53.208Z,8.21
2023-02-22T03:44:28.930Z,8.20
2023-02-22T03:47:07.467Z,8.16
2023-02-22T03:49:44.163Z,8.11
2023-02-22T03:52:17.482Z,8.09
2023-02-22T03:54:49.802Z,8.05
2023-02-22T03:57:27.196Z,8.01
2023-02-22T03:59:59.853Z,7.98
2023-02-22T04:02:32.134Z,7.97
2023-02-22T04:05:04.711Z,7.96
2023-02-22T04:07:37.193Z,7.95
2023-02-22T04:10:11.129Z,7.89
2023-02-22T04:12:43.754Z,7.77
2023-02-22T04:15:18.330Z,7.67
2023-02-22T04:17:52.361Z,7.59
2023-02-22T04:20:25.802Z,7.57
2023-02-22T04:22:58.783Z,7.52
2023-02-22T04:25:31.054Z,7.50
2023-02-22T04:28:04.064Z,7.52
2023-02-22T04:30:36.485Z,7.53
2023-02-22T04:33:09.180Z,7.55
2023-02-22T04:35:41.572Z,7.55
2023-02-22T04:38:14.716Z,7.54
2023-02-22T04:40:47.336Z,7.53
2023-02-22T04:43:19.854Z,7.52
2023-02-22T04:45:52.107Z,7.53
2023-02-22T04:48:24.554Z,7.54
2023-02-22T04:50:57.203Z,7.54
2023-02-22T04:53:29.771Z,7.54
2023-02-22T04:56:02.444Z,7.55
2023-02-22T04:58:34.916Z,7.55
2023-02-22T05:01:08.407Z,7.53
2023-02-22T05:03:42.030Z,7.51
2023-02-22T05:06:14.630Z,7.49
2023-02-22T05:08:46.834Z,7.48
2023-02-22T05:11:19.322Z,7.47
2023-02-22T05:13:51.735Z,7.44
2023-02-22T05:16:24.749Z,7.43
2023-02-22T05:18:57.013Z,7.44
2023-02-22T05:21:29.359Z,7.42
2023-02-22T05:24:01.748Z,7.41
2023-02-22T05:26:34.054Z,7.40
2023-02-22T05:29:06.766Z,7.39
2023-02-22T05:31:39.582Z,7.37
2023-02-22T05:34:12.235Z,7.36
2023-02-22T05:36:44.784Z,7.39
2023-02-22T05:39:17.247Z,7.38
2023-02-22T05:41:49.689Z,7.37
2023-02-22T05:44:22.333Z,7.37
2023-02-22T05:46:54.812Z,7.38
2023-02-22T05:49:27.152Z,7.43
2023-02-22T05:51:59.967Z,7.55
2023-02-22T05:54:32.269Z,7.74
2023-02-22T05:57:04.824Z,7.98
2023-02-22T05:59:37.179Z,8.28
2023-02-22T06:02:09.818Z,8.63
2023-02-22T06:04:45.183Z,8.97
2023-02-22T06:07:18.493Z,9.26
2023-02-22T06:09:50.940Z,9.62
2023-02-22T06:12:23.247Z,9.97
2023-02-22T06:14:55.554Z,10.32
2023-02-22T06:17:27.990Z,10.64
2023-02-22T06:20:00.380Z,10.87
2023-02-22T06:22:32.964Z,10.91
2023-02-22T06:25:07.615Z,10.93
2023-02-22T06:27:40.280Z,10.92
2023-02-22T06:30:15.181Z,10.94
2023-02-22T06:32:47.655Z,11.00
2023-02-22T06:35:22.132Z,11.15
2023-02-22T06:37:54.652Z,11.48
2023-02-22T06:40:29.708Z,11.63
2023-02-22T06:43:02.446Z,11.71
2023-02-22T06:45:35.285Z,11.83
2023-02-22T06:48:07.844Z,11.90
2023-02-22T06:50:40.542Z,11.98
2023-02-22T06:53:13.044Z,12.08
2023-02-22T06:55:45.503Z,12.20
2023-02-22T06:58:18.027Z,12.36
2023-02-22T07:00:50.387Z,12.44
2023-02-22T07:03:23.059Z,12.55
2023-02-22T07:05:55.746Z,12.78
2023-02-22T07:08:27.976Z,13.04
2023-02-22T07:11:00.325Z,13.16
2023-02-22T07:13:32.630Z,13.09
2023-02-22T07:16:05.303Z,12.91
2023-02-22T07:18:38.744Z,12.76
2023-02-22T07:21:11.010Z,12.61
2023-02-22T07:23:43.416Z,12.41
2023-02-22T07:26:15.735Z,12.22
2023-02-22T07:28:49.342Z,12.06
2023-02-22T07:31:21.833Z,11.98
2023-02-22T07:33:54.255Z,11.84
2023-02-22T07:36:26.635Z,11.64
2023-02-22T07:39:01.974Z,11.51
2023-02-22T07:41:34.403Z,11.47
2023-02-22T07:44:07.221Z,11.47
2023-02-22T07:46:39.650Z,11.48
2023-02-22T07:49:11.948Z,11.49
2023-02-22T07:51:44.387Z,11.49
2023-02-22T07:54:16.650Z,11.49
2023-02-22T07:56:50.015Z,11.55
2023-02-22T07:59:22.457Z,11.63
2023-02-22T08:01:54.720Z,11.69
2023-02-22T08:04:27.447Z,11.72
2023-02-22T08:06:59.857Z,11.76
2023-02-22T08:09:32.662Z,11.76
2023-02-22T08:12:05.455Z,11.87
2023-02-22T08:14:37.701Z,12.02
2023-02-22T08:17:10.081Z,12.17
2023-02-22T08:19:42.617Z,12.28
2023-02-22T08:22:15.178Z,12.35
2023-02-22T08:24:47.543Z,12.40
2023-02-22T08:27:23.731Z,12.39
2023-02-22T08:29:56.464Z,12.40
2023-02-22T08:32:29.196Z,12.44
2023-02-22T08:35:02.131Z,12.48
2023-02-22T08:37:34.457Z,12.49
2023-02-22T08:40:07.810Z,12.48
2023-02-22T08:42:40.252Z,12.49
2023-02-22T08:45:13.533Z,12.50
2023-02-22T08:47:46.452Z,12.47
2023-02-22T08:50:25.018Z,12.60
2023-02-22T08:53:00.777Z,12.68
2023-02-22T08:55:34.840Z,12.84
2023-02-22T08:58:09.583Z,13.09
2023-02-22T09:00:44.904Z,13.32
2023-02-22T09:03:17.924Z,13.61
2023-02-22T09:05:50.464Z,13.89
2023-02-22T09:08:22.758Z,14.21
2023-02-22T09:10:55.276Z,14.51
2023-02-22T09:13:27.595Z,14.65
2023-02-22T09:15:59.865Z,14.84
2023-02-22T09:18:43.478Z,15.02
2023-02-22T09:21:16.794Z,15.16
2023-02-22T09:23:51.032Z,15.33
2023-02-22T09:26:23.939Z,15.57
2023-02-22T09:28:56.407Z,15.84
2023-02-22T09:31:28.968Z,16.11
2023-02-22T09:34:04.137Z,16.20
2023-02-22T09:36:36.712Z,16.37
2023-02-22T09:39:11.326Z,16.56
2023-02-22T09:41:53.548Z,16.80
2023-02-22T09:44:36.320Z,16.98
2023-02-22T09:47:14.665Z,17.08
2023-02-22T09:49:58.222Z,17.22
2023-02-22T09:52:35.376Z,17.39
2023-02-22T09:55:18.193Z,17.45
2023-02-22T09:57:51.849Z,17.45
2023-02-22T10:00:29.801Z,17.31
2023-02-22T10:03:16.775Z,17.18
2023-02-22T10:05:57.018Z,17.05
2023-02-22T10:08:33.421Z,16.79
2023-02-22T10:11:19.616Z,16.53
2023-02-22T10:14:04.294Z,16.15
2023-02-22T10:16:42.248Z,15.87
2023-02-22T10:19:23.764Z,15.65
2023-02-22T10:22:19.825Z,15.50
2023-02-22T10:25:00.282Z,15.40
2023-02-22T10:27:38.980Z,15.20
2023-02-22T10:30:24.990Z,14.95
2023-02-22T10:33:06.602Z,14.78
2023-02-22T10:35:42.157Z,14.69
2023-02-22T10:38:23.648Z,14.64
2023-02-22T10:41:02.455Z,14.76
2023-02-22T10:43:34.881Z,14.94
2023-02-22T10:46:11.565Z,15.11
2023-02-22T10:48:47.333Z,15.16
2023-02-22T10:51:18.119Z,15.36
2023-02-22T10:53:59.504Z,15.56
2023-02-22T10:56:31.974Z,15.79
2023-02-22T10:59:07.674Z,15.92
2023-02-22T11:01:41.738Z,15.80
2023-02-22T11:04:17.636Z,15.69
2023-02-22T11:07:08.090Z,15.62
2023-02-22T11:09:53.387Z,15.51
2023-02-22T11:12:33.273Z,15.73
2023-02-22T11:15:29.714Z,15.98
2023-02-22T11:18:02.153Z,16.15
2023-02-22T11:20:38.853Z,16.09
2023-02-22T11:23:12.565Z,16.05
2023-02-22T11:25:45.557Z,16.15
2023-02-22T11:28:31.327Z,16.14
2023-02-22T11:31:16.157Z,16.18
2023-02-22T11:36:40.994Z,15.88
2023-02-22T11:39:28.650Z,15.42
2023-02-22T11:42:15.438Z,15.12
2023-02-22T11:44:47.720Z,14.92
2023-02-22T11:47:20.128Z,14.97
2023-02-22T11:49:53.697Z,15.05
2023-02-22T11:52:35.244Z,15.09
2023-02-22T11:55:32.655Z,15.03
2023-02-22T11:58:35.357Z,14.86
2023-02-22T12:01:17.626Z,14.78
2023-02-22T12:06:58.356Z,14.77
2023-02-22T12:09:40.923Z,14.67
2023-02-22T12:12:22.583Z,14.53
2023-02-22T12:15:02.358Z,14.51
2023-02-22T12:17:59.339Z,14.53
2023-02-22T12:20:39.910Z,14.41
2023-02-22T12:23:21.736Z,14.26
2023-02-22T12:26:05.443Z,14.13
2023-02-22T12:28:43.669Z,14.18
2023-02-22T12:31:25.568Z,14.25
2023-02-22T12:34:09.755Z,14.29
2023-02-22T12:36:46.936Z,14.30
2023-02-22T12:39:52.373Z,14.32
2023-02-22T12:42:32.314Z,14.33
2023-02-22T12:45:11.381Z,14.32
2023-02-22T12:47:51.041Z,14.33
2023-02-22T12:50:28.737Z,14.33
2023-02-22T12:53:08.461Z,14.32
2023-02-22T12:55:46.464Z,14.31
2023-02-22T12:58:27.128Z,14.20
2023-02-22T13:01:07.953Z,14.13
2023-02-22T13:03:42.576Z,14.10
2023-02-22T13:06:53.783Z,14.05
2023-02-22T13:09:54.213Z,14.02
2023-02-22T13:12:34.648Z,13.97
2023-02-22T13:15:17.569Z,13.94
2023-02-22T13:18:01.627Z,13.82
2023-02-22T13:20:42.008Z,13.69
2023-02-22T13:23:22.554Z,13.57
2023-02-22T13:26:03.815Z,13.62
2023-02-22T13:28:41.218Z,13.66
2023-02-22T13:31:27.036Z,13.68
2023-02-22T13:34:19.019Z,13.67
2023-02-22T13:37:04.839Z,13.62
2023-02-22T13:39:54.864Z,13.61
2023-02-22T13:42:44.637Z,13.61
2023-02-22T13:45:56.798Z,13.65
2023-02-22T13:48:44.980Z,13.62
2023-02-22T13:51:44.554Z,13.56
2023-02-22T13:54:21.870Z,13.51
2023-02-22T13:56:57.517Z,13.45
2023-02-22T13:59:36.369Z,13.39
2023-02-22T14:02:32.023Z,13.35
2023-02-22T14:05:41.507Z,13.28
2023-02-22T14:08:44.103Z,13.26
2023-02-22T14:11:54.245Z,13.23
2023-02-22T14:14:27.339Z,13.22
2023-02-22T14:17:33.450Z,13.21
2023-02-22T14:20:35.282Z,13.19
2023-02-22T14:23:36.430Z,13.21
2023-02-22T14:26:17.303Z,13.18
2023-02-22T14:28:57.854Z,13.18
2023-02-22T14:31:37.032Z,13.19
2023-02-22T14:34:13.298Z,13.20
2023-02-22T14:36:52.727Z,13.18
2023-02-22T14:39:32.838Z,13.16
2023-02-22T14:42:12.638Z,13.13
2023-02-22T14:44:54.229Z,13.06
2023-02-22T14:47:30.075Z,13.02
2023-02-22T14:50:04.778Z,13.01
2023-02-22T14:52:41.074Z,13.00
2023-02-22T14:55:23.431Z,13.00
2023-02-22T14:58:08.690Z,12.96
2023-02-22T15:00:45.983Z,12.92
2023-02-22T15:03:33.253Z,12.89
2023-02-22T15:06:16.042Z,12.86
2023-02-22T15:08:50.457Z,12.84
2023-02-22T15:11:31.174Z,12.83
2023-02-22T15:14:06.485Z,12.82
2023-02-22T15:16:44.663Z,12.80
2023-02-22T15:19:25.234Z,12.73
2023-02-22T15:22:00.128Z,12.65
2023-02-22T15:24:36.505Z,12.50
2023-02-22T15:27:15.961Z,12.40
2023-02-22T15:29:48.572Z,12.36
2023-02-22T15:32:33.994Z,12.34
2023-02-22T15:35:20.223Z,12.30
2023-02-22T15:38:02.754Z,12.27
2023-02-22T15:40:36.738Z,12.24
2023-02-22T15:43:17.376Z,12.22
2023-02-22T15:45:51.171Z,12.19
2023-02-22T15:48:23.615Z,12.14
2023-02-22T15:51:10.800Z,12.09
2023-02-22T15:53:46.714Z,12.03
2023-02-22T15:56:21.389Z,11.99
2023-02-22T15:59:00.503Z,11.96
2023-02-22T16:01:40.088Z,11.91
2023-02-22T16:04:21.931Z,11.87
2023-02-22T16:07:03.604Z,11.80
2023-02-22T16:09:36.188Z,11.74
2023-02-22T16:12:24.867Z,11.72
2023-02-22T16:14:58.035Z,11.67
2023-02-22T16:17:37.727Z,11.63
2023-02-22T16:20:36.714Z,11.60
2023-02-22T16:23:27.695Z,11.55
2023-02-22T16:26:20.783Z,11.49
2023-02-22T16:28:56.474Z,11.43
2023-02-22T16:31:33.764Z,11.38
2023-02-22T16:34:08.224Z,11.32
2023-02-22T16:36:43.358Z,11.27
2023-02-22T16:39:21.458Z,11.22
2023-02-22T16:41:56.005Z,11.17
2023-02-22T16:44:28.952Z,11.11
2023-02-22T16:47:02.290Z,11.07
2023-02-22T16:49:34.610Z,11.03
2023-02-22T16:52:09.594Z,11.00
2023-02-22T16:54:45.293Z,10.97
2023-02-22T16:57:23.237Z,10.93
2023-02-22T16:59:55.702Z,10.88
2023-02-22T17:02:28.443Z,10.81
2023-02-22T17:05:00.779Z,10.76
2023-02-22T17:07:33.540Z,10.71
2023-02-22T17:10:06.582Z,10.65
2023-02-22T17:12:44.040Z,10.62
2023-02-22T17:15:22.639Z,10.57
2023-02-22T17:17:59.431Z,10.52
2023-02-22T17:20:32.207Z,10.49
2023-02-22T17:23:06.617Z,10.46
2023-02-22T17:25:41.835Z,10.43
2023-02-22T17:28:14.848Z,10.41
2023-02-22T17:30:49.117Z,10.40
2023-02-22T17:33:27.070Z,10.38
2023-02-22T17:36:01.875Z,10.36
2023-02-22T17:38:34.943Z,10.33
2023-02-22T17:41:09.730Z,10.30
2023-02-22T17:43:42.173Z,10.28
2023-02-22T17:46:14.747Z,10.25
2023-02-22T17:48:48.311Z,10.23
2023-02-22T17:51:21.467Z,10.20
2023-02-22T17:53:54.347Z,10.19
2023-02-22T17:56:26.674Z,10.17
2023-02-22T17:58:58.992Z,10.15
2023-02-22T18:01:33.968Z,10.12
2023-02-22T18:04:06.567Z,10.10
2023-02-22T18:06:40.186Z,10.05
2023-02-22T18:09:14.730Z,10.02
2023-02-22T18:11:47.808Z,9.95
2023-02-22T18:14:20.238Z,9.91
2023-02-22T18:16:52.736Z,9.84
2023-02-22T18:19:25.215Z,9.77
2023-02-22T18:22:00.375Z,9.76
2023-02-22T18:24:35.607Z,9.74
2023-02-22T18:27:08.240Z,9.71
2023-02-22T18:29:40.668Z,9.68
2023-02-22T18:32:13.878Z,9.67
2023-02-22T18:34:46.169Z,9.65
2023-02-22T18:37:20.624Z,9.62
2023-02-22T18:39:55.522Z,9.58
2023-02-22T18:42:28.321Z,9.55
2023-02-22T18:45:03.359Z,9.49
2023-02-22T18:47:42.429Z,9.45
2023-02-22T18:50:17.557Z,9.40
2023-02-22T18:52:49.894Z,9.36
2023-02-22T18:55:24.053Z,9.34
2023-02-22T18:57:56.719Z,9.32
2023-02-22T19:00:29.532Z,9.29
2023-02-22T19:03:02.046Z,9.24
2023-02-22T19:05:36.097Z,9.22
2023-02-22T19:08:11.534Z,9.17
2023-02-22T19:10:44.045Z,9.12
2023-02-22T19:13:16.816Z,9.08
2023-02-22T19:15:49.443Z,9.07
2023-02-22T19:18:21.969Z,9.06
2023-02-22T19:21:00.000Z,9.07
2023-02-22T19:23:35.090Z,9.07
2023-02-22T19:26:09.468Z,9.04
2023-02-22T19:28:41.837Z,9.02
2023-02-22T19:31:17.035Z,8.98
2023-02-22T19:33:51.649Z,8.97
2023-02-22T19:36:24.825Z,8.95
2023-02-22T19:39:01.075Z,8.92
2023-02-22T19:41:33.828Z,8.91
2023-02-22T19:44:08.342Z,8.90
2023-02-22T19:46:41.614Z,8.89
2023-02-22T19:49:14.762Z,8.87
2023-02-22T19:51:47.180Z,8.86
2023-02-22T19:54:21.616Z,8.85
2023-02-22T19:56:54.673Z,8.80
2023-02-22T19:59:27.501Z,8.76
2023-02-22T20:02:00.348Z,8.74
2023-02-22T20:04:32.626Z,8.74
2023-02-22T20:07:05.073Z,8.73
2023-02-22T20:09:39.703Z,8.74
2023-02-22T20:12:12.685Z,8.75
2023-02-22T20:14:46.389Z,8.75
2023-02-22T20:17:18.560Z,8.73
2023-02-22T20:19:51.187Z,8.71
2023-02-22T20:22:24.188Z,8.70
2023-02-22T20:24:56.916Z,8.71
2023-02-22T20:27:29.410Z,8.70
2023-02-22T20:30:01.627Z,8.69
2023-02-22T20:32:34.525Z,8.68
2023-02-22T20:35:07.597Z,8.65
2023-02-22T20:37:42.668Z,8.68
2023-02-22T20:40:15.177Z,8.66
2023-02-22T20:42:47.649Z,8.67
2023-02-22T20:45:20.335Z,8.67
2023-02-22T20:47:52.690Z,8.68
2023-02-22T20:50:25.071Z,8.69
2023-02-22T20:52:59.051Z,8.71
2023-02-22T20:55:31.717Z,8.72
2023-02-22T20:58:04.128Z,8.72
2023-02-22T21:00:36.460Z,8.72
2023-02-22T21:03:09.543Z,8.70
2023-02-22T21:05:46.319Z,8.69
2023-02-22T21:08:18.579Z,8.66
2023-02-22T21:10:50.906Z,8.65
2023-02-22T21:13:23.279Z,8.63
2023-02-22T21:15:55.979Z,8.60
2023-02-22T21:18:28.351Z,8.59
2023-02-22T21:21:10.265Z,8.58
2023-02-22T21:23:43.794Z,8.57
2023-02-22T21:26:19.023Z,8.58
2023-02-22T21:28:51.825Z,8.58
2023-02-22T21:31:26.193Z,8.58
2023-02-22T21:34:00.661Z,8.59
2023-02-22T21:36:33.734Z,8.60
2023-02-22T21:39:18.192Z,8.61
2023-02-22T21:41:52.611Z,8.57
2023-02-22T21:44:25.001Z,8.55
2023-02-22T21:46:57.658Z,8.53
2023-02-22T21:49:30.259Z,8.54
2023-02-22T21:52:02.695Z,8.53
2023-02-22T21:54:34.939Z,8.60
2023-02-22T21:57:07.473Z,8.60
2023-02-22T21:59:41.288Z,8.55
2023-02-22T22:02:14.064Z,8.55
2023-02-22T22:04:47.157Z,8.55
2023-02-22T22:07:19.690Z,8.56
2023-02-22T22:09:56.756Z,8.54
2023-02-22T22:12:38.713Z,8.51
2023-02-22T22:15:16.431Z,8.51
2023-02-22T22:17:49.233Z,8.54
2023-02-22T22:20:22.358Z,8.55
2023-02-22T22:22:55.215Z,8.55
2023-02-22T22:25:28.760Z,8.55
2023-02-22T22:28:01.225Z,8.52
2023-02-22T22:30:34.660Z,8.50
2023-02-22T22:33:11.570Z,8.52
2023-02-22T22:35:43.927Z,8.49
2023-02-22T22:38:17.498Z,8.54
2023-02-22T22:40:53.037Z,8.57
2023-02-22T22:43:25.699Z,8.55
2023-02-22T22:45:59.358Z,8.63
2023-02-22T22:48:36.195Z,8.63
2023-02-22T22:51:12.960Z,8.66
2023-02-22T22:53:47.683Z,8.65
2023-02-22T22:56:26.530Z,8.66
2023-02-22T22:59:00.419Z,8.68
2023-02-22T23:01:34.398Z,8.69
2023-02-22T23:04:09.784Z,8.66
2023-02-22T23:06:43.988Z,8.61
2023-02-22T23:09:19.868Z,8.64
2023-02-22T23:11:53.515Z,8.63
2023-02-22T23:14:31.287Z,8.61
2023-02-22T23:17:04.452Z,8.62
2023-02-22T23:19:38.124Z,8.63
2023-02-22T23:22:13.989Z,8.64
2023-02-22T23:24:46.425Z,8.65
2023-02-22T23:27:19.134Z,8.64
2023-02-22T23:29:52.671Z,8.62
2023-02-22T23:32:26.935Z,8.60
2023-02-22T23:35:01.848Z,8.59
2023-02-22T23:37:35.596Z,8.57
2023-02-22T23:40:17.074Z,8.53
2023-02-22T23:42:54.662Z,8.47
2023-02-22T23:45:28.634Z,8.42
2023-02-22T23:48:01.782Z,8.33
2023-02-22T23:50:36.627Z,8.27
2023-02-22T23:53:15.219Z,8.23
2023-02-22T23:55:47.674Z,8.21
2023-02-22T23:58:22.943Z,8.20
